createdAt,value
2022-08-17T00:01:00.780Z,1.77
2022-08-17T00:03:34.737Z,1.98
2022-08-17T00:06:15.561Z,1.83
2022-08-17T00:08:59.401Z,1.92
2022-08-17T00:12:42.932Z,1.70
2022-08-17T00:14:55.799Z,2.00
2022-08-17T00:17:24.175Z,1.70
2022-08-17T00:19:52.446Z,1.55
2022-08-17T00:22:39.271Z,1.55
2022-08-17T00:25:13.284Z,1.60
2022-08-17T00:27:41.824Z,1.85
2022-08-17T00:30:30.874Z,1.50
2022-08-17T00:33:23.666Z,1.95
2022-08-17T00:35:52.997Z,1.70
2022-08-17T00:38:21.949Z,1.80
2022-08-17T00:40:55.696Z,1.52
2022-08-17T00:43:32.856Z,2.08
2022-08-17T00:46:04.872Z,1.52
2022-08-17T00:48:33.929Z,1.50
2022-08-17T00:51:46.819Z,1.63
2022-08-17T00:54:25.041Z,2.50
2022-08-17T00:57:09.896Z,2.00
2022-08-17T00:59:41.350Z,1.95
2022-08-17T01:02:31.027Z,1.67
2022-08-17T01:05:15.155Z,2.00
2022-08-17T01:07:44.837Z,1.83
2022-08-17T01:10:58.228Z,2.25
2022-08-17T01:13:05.140Z,2.42
2022-08-17T01:15:37.914Z,1.67
2022-08-17T01:18:08.887Z,1.83
2022-08-17T01:21:02.011Z,2.35
2022-08-17T01:23:49.383Z,1.98
2022-08-17T01:26:18.625Z,2.00
2022-08-17T01:28:53.820Z,1.98
2022-08-17T01:31:28.486Z,2.20
2022-08-17T01:34:18.952Z,2.22
2022-08-17T01:36:50.013Z,2.00
2022-08-17T01:39:42.781Z,2.20
2022-08-17T01:42:58.803Z,3.17
2022-08-17T01:45:48.277Z,1.73
2022-08-17T01:48:36.443Z,2.88
2022-08-17T01:51:07.837Z,2.10
2022-08-17T01:53:57.808Z,2.33
2022-08-17T01:56:27.283Z,2.00
2022-08-17T01:59:13.865Z,2.30
2022-08-17T02:01:44.895Z,2.03
2022-08-17T02:04:32.128Z,1.65
2022-08-17T02:07:00.517Z,2.22
2022-08-17T02:09:30.187Z,2.42
2022-08-17T02:12:38.202Z,1.83
2022-08-17T02:14:49.085Z,2.15
2022-08-17T02:17:17.287Z,1.85
2022-08-17T02:19:45.507Z,2.15
2022-08-17T02:22:14.030Z,2.15
2022-08-17T02:24:59.440Z,2.67
2022-08-17T02:27:29.911Z,1.75
2022-08-17T02:30:59.803Z,2.30
2022-08-17T02:33:25.279Z,1.75
2022-08-17T02:36:13.024Z,1.98
2022-08-17T02:38:42.088Z,1.80
2022-08-17T02:41:10.595Z,2.10
2022-08-17T02:43:56.974Z,2.40
2022-08-17T02:46:25.161Z,1.58
2022-08-17T02:48:53.348Z,1.90
2022-08-17T02:54:40.395Z,1.90
2022-08-17T02:56:55.219Z,1.77
2022-08-17T02:59:24.592Z,2.28
2022-08-17T03:01:53.910Z,1.98
2022-08-17T03:04:22.270Z,2.00
2022-08-17T03:06:50.485Z,2.10
2022-08-17T03:09:18.649Z,2.00
2022-08-17T03:11:46.771Z,2.42
2022-08-17T03:14:41.255Z,2.13
2022-08-17T03:17:28.218Z,1.92
2022-08-17T03:19:56.330Z,2.05
2022-08-17T03:22:35.548Z,2.25
2022-08-17T03:25:10.515Z,2.30
2022-08-17T03:27:58.053Z,2.33
2022-08-17T03:30:28.099Z,2.30
2022-08-17T03:33:00.327Z,2.10
2022-08-17T03:35:32.029Z,2.25
2022-08-17T03:38:19.173Z,2.33
2022-08-17T03:40:59.085Z,2.10
2022-08-17T03:43:31.758Z,2.25
2022-08-17T03:46:27.645Z,2.40
2022-08-17T03:49:28.756Z,2.60
2022-08-17T03:52:16.750Z,2.45
2022-08-17T03:55:22.082Z,2.55
2022-08-17T03:58:04.731Z,2.50
2022-08-17T04:00:32.861Z,2.60
2022-08-17T04:03:25.326Z,2.38
2022-08-17T04:05:53.516Z,2.53
2022-08-17T04:08:21.690Z,2.63
2022-08-17T04:10:50.264Z,2.50
2022-08-17T04:13:24.800Z,2.60
2022-08-17T04:15:54.283Z,2.30
2022-08-17T04:18:22.424Z,2.60
2022-08-17T04:20:50.512Z,2.20
2022-08-17T04:23:19.425Z,3.72
2022-08-17T04:26:09.458Z,2.72
2022-08-17T04:28:58.811Z,2.25
2022-08-17T04:31:27.875Z,2.60
2022-08-17T04:33:56.437Z,2.72
2022-08-17T04:36:24.507Z,2.38
2022-08-17T04:38:52.548Z,2.50
2022-08-17T04:41:39.197Z,2.85
2022-08-17T04:44:11.859Z,2.58
2022-08-17T04:46:40.006Z,2.50
2022-08-17T04:49:10.254Z,2.60
2022-08-17T04:51:49.665Z,2.50
2022-08-17T04:54:23.183Z,2.30
2022-08-17T04:56:51.673Z,2.33
2022-08-17T04:59:21.830Z,2.50
2022-08-17T05:01:52.015Z,2.50
2022-08-17T05:04:34.443Z,2.72
2022-08-17T05:07:04.842Z,2.60
2022-08-17T05:09:33.064Z,2.55
2022-08-17T05:12:02.616Z,2.28
2022-08-17T05:14:33.082Z,2.60
2022-08-17T05:17:07.378Z,2.22
2022-08-17T05:19:39.211Z,2.30
2022-08-17T05:22:07.391Z,2.60
2022-08-17T05:24:40.785Z,2.20
2022-08-17T05:27:17.841Z,2.40
2022-08-17T05:29:46.981Z,2.30
2022-08-17T05:32:38.770Z,2.00
2022-08-17T05:35:03.843Z,2.47
2022-08-17T05:37:31.988Z,2.50
2022-08-17T05:40:00.000Z,2.03
2022-08-17T05:42:28.119Z,2.42
2022-08-17T05:45:16.244Z,2.08
2022-08-17T05:48:00.221Z,2.33
2022-08-17T05:50:36.068Z,2.20
2022-08-17T05:53:29.277Z,2.22
2022-08-17T05:56:29.492Z,2.50
2022-08-17T05:59:16.577Z,2.35
2022-08-17T06:01:54.856Z,2.58
2022-08-17T06:04:32.186Z,3.00
2022-08-17T06:07:58.602Z,2.83
2022-08-17T06:10:54.464Z,2.50
2022-08-17T06:13:45.829Z,2.35
2022-08-17T06:16:33.776Z,2.42
2022-08-17T06:19:40.271Z,2.13
2022-08-17T06:22:12.341Z,2.20
2022-08-17T06:24:58.264Z,2.63
2022-08-17T06:27:44.159Z,2.25
2022-08-17T06:30:20.520Z,2.20
2022-08-17T06:32:51.851Z,2.75
2022-08-17T06:35:39.988Z,1.98
2022-08-17T06:38:37.462Z,2.42
2022-08-17T06:44:12.236Z,2.33
2022-08-17T06:47:29.637Z,2.67
2022-08-17T06:50:09.814Z,3.00
2022-08-17T06:52:55.374Z,2.42
2022-08-17T06:55:38.096Z,2.60
2022-08-17T06:58:16.512Z,3.33
2022-08-17T07:00:47.602Z,2.50
2022-08-17T07:06:29.639Z,2.47
2022-08-17T07:09:06.391Z,2.38
2022-08-17T07:11:44.225Z,2.70
2022-08-17T07:14:36.923Z,3.25
2022-08-17T07:17:13.858Z,2.25
2022-08-17T07:19:45.868Z,2.75
2022-08-17T07:22:57.203Z,2.35
2022-08-17T07:25:21.639Z,2.53
2022-08-17T07:27:52.159Z,3.00
2022-08-17T07:30:26.783Z,2.58
2022-08-17T07:33:01.339Z,2.88
2022-08-17T07:35:37.704Z,3.08
2022-08-17T07:38:28.670Z,2.53
2022-08-17T07:41:02.962Z,3.03
2022-08-17T07:43:52.817Z,3.28
2022-08-17T07:46:51.537Z,2.78
2022-08-17T07:49:46.250Z,2.03
2022-08-17T07:52:51.853Z,2.55
2022-08-17T07:55:33.185Z,2.38
2022-08-17T07:58:02.096Z,2.00
2022-08-17T08:00:32.266Z,2.80
2022-08-17T08:03:22.177Z,2.30
2022-08-17T08:06:20.982Z,2.35
2022-08-17T08:08:55.189Z,1.70
2022-08-17T08:11:35.804Z,1.95
2022-08-17T08:14:19.228Z,1.63
2022-08-17T08:17:09.418Z,1.45
2022-08-17T08:19:37.648Z,1.70
2022-08-17T08:22:13.325Z,1.40
2022-08-17T08:24:53.732Z,1.17
2022-08-17T08:28:01.679Z,1.40
2022-08-17T08:30:33.146Z,1.20
2022-08-17T08:33:25.662Z,1.20
2022-08-17T08:37:12.922Z,1.30
2022-08-17T08:39:22.175Z,1.40
2022-08-17T08:41:55.895Z,2.17
2022-08-17T08:45:00.350Z,1.58
2022-08-17T08:47:39.070Z,1.30
2022-08-17T08:50:38.251Z,1.30
2022-08-17T08:53:32.380Z,1.73
2022-08-17T08:56:10.180Z,1.38
2022-08-17T08:58:52.525Z,1.20
2022-08-17T09:01:32.010Z,1.33
2022-08-17T09:04:23.277Z,1.20
2022-08-17T09:07:07.975Z,1.27
2022-08-17T09:09:59.299Z,1.33
2022-08-17T09:12:27.604Z,1.30
2022-08-17T09:15:07.214Z,1.02
2022-08-17T09:17:47.389Z,1.13
2022-08-17T09:20:27.502Z,1.40
2022-08-17T09:23:08.339Z,1.40
2022-08-17T09:28:56.348Z,0.95
2022-08-17T09:31:48.202Z,1.20
2022-08-17T09:34:28.166Z,1.00
2022-08-17T09:37:04.153Z,1.13
2022-08-17T09:39:46.746Z,1.10
2022-08-17T09:42:29.440Z,1.00
2022-08-17T09:45:00.504Z,1.05
2022-08-17T09:51:03.708Z,1.10
2022-08-17T09:53:13.009Z,1.17
2022-08-17T09:56:24.284Z,1.40
2022-08-17T09:59:03.640Z,1.20
2022-08-17T10:01:40.445Z,1.08
2022-08-17T10:07:24.943Z,1.20
2022-08-17T10:10:14.423Z,0.90
2022-08-17T10:13:30.790Z,1.20
2022-08-17T10:19:32.289Z,1.20
2022-08-17T10:22:35.309Z,1.13
2022-08-17T10:25:37.612Z,1.40
2022-08-17T10:28:19.847Z,1.20
2022-08-17T10:31:10.391Z,1.40
2022-08-17T10:33:57.911Z,1.10
2022-08-17T10:37:15.662Z,1.05
2022-08-17T10:39:52.123Z,1.00
2022-08-17T10:42:51.173Z,1.20
2022-08-17T10:48:32.738Z,1.20
2022-08-17T10:51:07.716Z,1.35
2022-08-17T10:53:35.607Z,1.10
2022-08-17T10:56:13.020Z,1.20
2022-08-17T10:58:57.834Z,1.15
2022-08-17T11:01:34.795Z,1.50
2022-08-17T11:07:11.525Z,1.48
2022-08-17T11:10:04.224Z,1.70
2022-08-17T11:12:45.541Z,1.20
2022-08-17T11:15:19.895Z,1.42
2022-08-17T11:18:07.303Z,1.65
2022-08-17T11:20:46.309Z,1.48
2022-08-17T11:23:48.692Z,1.80
2022-08-17T11:26:26.372Z,1.63
2022-08-17T11:29:00.282Z,1.13
2022-08-17T11:32:23.222Z,1.20
2022-08-17T11:35:26.870Z,1.40
2022-08-17T11:38:26.021Z,1.10
2022-08-17T11:41:40.398Z,1.13
2022-08-17T11:44:30.374Z,1.17
2022-08-17T11:47:28.867Z,1.20
2022-08-17T11:50:27.753Z,1.20
2022-08-17T11:52:56.109Z,1.30
2022-08-17T11:55:36.390Z,1.63
2022-08-17T11:58:31.100Z,1.13
2022-08-17T12:04:24.401Z,1.35
2022-08-17T12:06:58.714Z,1.55
2022-08-17T12:09:32.499Z,1.00
2022-08-17T12:12:14.299Z,1.23
2022-08-17T12:15:11.776Z,1.13
2022-08-17T12:17:42.912Z,1.40
2022-08-17T12:20:23.248Z,1.33
2022-08-17T12:23:01.429Z,1.23
2022-08-17T12:25:38.304Z,1.42
2022-08-17T12:33:52.077Z,1.30
2022-08-17T12:36:28.491Z,2.05
2022-08-17T12:39:13.820Z,1.38
2022-08-17T12:41:47.224Z,1.50
2022-08-17T12:44:26.167Z,1.55
2022-08-17T12:47:10.956Z,1.33
2022-08-17T12:49:42.464Z,1.30
2022-08-17T12:52:19.877Z,1.27
2022-08-17T12:54:53.436Z,1.08
2022-08-17T12:57:25.587Z,1.52
2022-08-17T13:00:08.193Z,1.85
2022-08-17T13:02:44.317Z,2.40
2022-08-17T13:05:18.129Z,2.03
2022-08-17T13:07:46.893Z,1.45
2022-08-17T13:10:41.850Z,1.52
2022-08-17T13:15:59.940Z,1.90
2022-08-17T13:18:44.815Z,1.35
2022-08-17T13:21:26.974Z,1.45
2022-08-17T13:24:06.051Z,1.33
2022-08-17T13:26:44.687Z,1.23
2022-08-17T13:29:33.725Z,1.58
2022-08-17T13:32:05.260Z,1.50
2022-08-17T13:35:15.495Z,1.27
2022-08-17T13:38:05.233Z,1.10
2022-08-17T13:40:41.834Z,1.50
2022-08-17T13:43:10.840Z,1.00
2022-08-17T13:45:46.434Z,1.13
2022-08-17T13:48:28.428Z,1.13
2022-08-17T13:51:13.936Z,1.48
2022-08-17T13:57:09.827Z,1.60
2022-08-17T13:59:54.992Z,1.88
2022-08-17T14:02:26.631Z,1.65
2022-08-17T14:04:58.427Z,1.45
2022-08-17T14:07:34.070Z,1.55
2022-08-17T14:10:13.417Z,1.42
2022-08-17T14:12:59.759Z,1.27
2022-08-17T14:15:54.543Z,1.20
2022-08-17T14:18:18.227Z,2.10
2022-08-17T14:21:05.743Z,1.52
2022-08-17T14:23:35.418Z,1.58
2022-08-17T14:26:03.989Z,1.55
2022-08-17T14:28:32.446Z,1.40
2022-08-17T14:31:19.583Z,1.58
2022-08-17T14:33:47.563Z,1.30
2022-08-17T14:36:15.488Z,1.00
2022-08-17T14:39:02.260Z,1.00
2022-08-17T14:41:30.343Z,1.33
2022-08-17T14:43:58.232Z,1.10
2022-08-17T14:46:26.792Z,1.30
2022-08-17T14:48:57.324Z,1.10
2022-08-17T14:51:28.855Z,1.27
2022-08-17T14:53:57.575Z,1.25
2022-08-17T14:56:26.454Z,1.10
2022-08-17T14:58:54.709Z,1.58
2022-08-17T15:01:24.870Z,1.50
2022-08-17T15:03:54.344Z,1.58
2022-08-17T15:09:08.290Z,1.58
2022-08-17T15:11:36.808Z,1.17
2022-08-17T15:14:04.837Z,1.50
2022-08-17T15:16:36.152Z,1.30
2022-08-17T15:19:08.155Z,1.60
2022-08-17T15:21:36.446Z,1.50
2022-08-17T15:24:05.870Z,1.58
2022-08-17T15:26:33.898Z,1.63
2022-08-17T15:29:01.911Z,1.35
2022-08-17T15:31:31.961Z,1.27
2022-08-17T15:34:00.611Z,1.50
2022-08-17T15:36:28.683Z,1.42
2022-08-17T15:38:56.740Z,1.67
2022-08-17T15:41:26.099Z,1.77
2022-08-17T15:43:54.884Z,1.30
2022-08-17T15:46:25.765Z,1.35
2022-08-17T15:48:59.916Z,1.63
2022-08-17T15:51:31.181Z,1.70
2022-08-17T15:56:29.353Z,1.30
2022-08-17T15:58:58.091Z,1.42
2022-08-17T16:03:13.943Z,1.48
2022-08-17T16:04:34.644Z,1.50
2022-08-17T16:07:26.606Z,1.17
2022-08-17T16:09:54.940Z,1.30
2022-08-17T16:12:23.025Z,1.40
2022-08-17T16:14:53.626Z,1.33
2022-08-17T16:20:28.319Z,1.17
2022-08-17T16:22:56.433Z,1.50
2022-08-17T16:25:52.201Z,1.58
2022-08-17T16:28:17.883Z,1.52
2022-08-17T16:30:46.096Z,1.40
2022-08-17T16:33:15.257Z,1.48
2022-08-17T16:36:01.725Z,1.70
2022-08-17T16:38:29.598Z,1.17
2022-08-17T16:40:57.455Z,1.45
2022-08-17T16:43:25.925Z,1.50
2022-08-17T16:45:53.815Z,1.50
2022-08-17T16:48:21.974Z,1.17
2022-08-17T16:51:00.348Z,1.38
2022-08-17T16:53:32.332Z,1.58
2022-08-17T16:56:00.270Z,1.30
2022-08-17T16:58:28.355Z,1.25
2022-08-17T17:00:59.753Z,1.15
2022-08-17T17:03:30.543Z,1.63
2022-08-17T17:06:24.855Z,1.52
2022-08-17T17:09:02.525Z,1.50
2022-08-17T17:11:45.752Z,1.40
2022-08-17T17:14:20.482Z,1.95
2022-08-17T17:16:59.700Z,1.55
2022-08-17T17:19:48.491Z,2.22
2022-08-17T17:22:32.848Z,1.70
2022-08-17T17:25:57.871Z,1.77
2022-08-17T17:28:44.183Z,1.80
2022-08-17T17:31:24.019Z,2.80
2022-08-17T17:34:04.118Z,2.30
2022-08-17T17:36:38.423Z,1.63
2022-08-17T17:39:17.034Z,1.42
2022-08-17T17:42:14.469Z,1.80
2022-08-17T17:45:24.460Z,1.38
2022-08-17T17:47:53.567Z,1.27
2022-08-17T17:50:32.485Z,1.90
2022-08-17T17:53:07.770Z,1.60
2022-08-17T17:55:38.327Z,1.85
2022-08-17T17:58:21.167Z,1.50
2022-08-17T18:01:14.070Z,1.92
2022-08-17T18:03:41.990Z,2.05
2022-08-17T18:06:29.886Z,1.65
2022-08-17T18:09:09.033Z,1.55
2022-08-17T18:12:02.845Z,1.90
2022-08-17T18:15:22.208Z,1.60
2022-08-17T18:18:11.818Z,1.88
2022-08-17T18:20:46.476Z,1.70
2022-08-17T18:23:28.387Z,1.90
2022-08-17T18:25:58.817Z,1.70
2022-08-17T18:28:30.768Z,1.40
2022-08-17T18:31:09.874Z,1.58
2022-08-17T18:33:41.052Z,1.65
2022-08-17T18:36:09.415Z,1.30
2022-08-17T18:38:42.826Z,1.60
2022-08-17T18:41:30.573Z,1.38
2022-08-17T18:44:22.171Z,0.77
2022-08-17T18:50:34.675Z,0.68
2022-08-17T18:53:33.283Z,0.68
2022-08-17T18:56:37.149Z,0.80
2022-08-17T18:59:34.058Z,0.57
2022-08-17T19:02:45.673Z,0.65
2022-08-17T19:05:41.517Z,0.60
2022-08-17T19:08:34.293Z,0.45
2022-08-17T19:11:30.361Z,0.60
2022-08-17T19:14:03.824Z,0.50
2022-08-17T19:16:52.861Z,1.52
2022-08-17T19:19:38.453Z,0.82
2022-08-17T19:22:26.508Z,0.60
2022-08-17T19:25:09.816Z,0.90
2022-08-17T19:27:49.202Z,0.63
2022-08-17T19:30:18.189Z,0.65
2022-08-17T19:32:46.189Z,0.68
2022-08-17T19:35:17.659Z,0.75
2022-08-17T19:37:53.666Z,0.63
2022-08-17T19:43:49.785Z,0.60
2022-08-17T19:46:49.832Z,0.50
2022-08-17T19:49:47.154Z,1.02
2022-08-17T19:52:42.285Z,0.90
2022-08-17T19:55:22.445Z,0.55
2022-08-17T19:58:00.989Z,1.13
2022-08-17T20:00:31.467Z,1.13
2022-08-17T20:03:19.200Z,0.98
2022-08-17T20:06:17.931Z,1.27
2022-08-17T20:08:52.197Z,0.90
2022-08-17T20:11:45.817Z,2.83
2022-08-17T20:14:20.895Z,2.35
2022-08-17T20:16:48.934Z,2.35
2022-08-17T20:19:22.325Z,0.90
2022-08-17T20:22:00.993Z,1.05
2022-08-17T20:24:58.050Z,0.90
2022-08-17T20:27:31.497Z,1.17
2022-08-17T20:30:02.727Z,0.90
2022-08-17T20:32:35.888Z,1.05
2022-08-17T20:35:21.103Z,0.90
2022-08-17T20:38:11.271Z,1.00
2022-08-17T20:40:40.726Z,0.90
2022-08-17T20:43:30.218Z,1.13
2022-08-17T20:48:38.865Z,0.85
2022-08-17T20:51:27.392Z,0.80
2022-08-17T20:53:55.339Z,0.80
2022-08-17T20:56:45.184Z,0.98
2022-08-17T20:59:28.828Z,0.95
2022-08-17T21:02:03.052Z,1.60
2022-08-17T21:05:01.156Z,1.00
2022-08-17T21:07:42.639Z,1.48
2022-08-17T21:10:26.746Z,1.10
2022-08-17T21:16:00.451Z,1.20
2022-08-17T21:18:40.531Z,0.85
2022-08-17T21:21:17.571Z,1.98
2022-08-17T21:24:12.993Z,1.35
2022-08-17T21:27:08.895Z,1.00
2022-08-17T21:30:06.548Z,0.90
2022-08-17T21:32:40.475Z,1.20
2022-08-17T21:35:28.874Z,0.85
2022-08-17T21:38:22.375Z,0.70
2022-08-17T21:41:24.129Z,1.30
2022-08-17T21:44:19.658Z,1.05
2022-08-17T21:49:45.452Z,1.10
2022-08-17T21:52:20.692Z,0.95
2022-08-17T21:54:52.502Z,1.08
2022-08-17T21:57:30.037Z,0.77
2022-08-17T22:00:01.794Z,0.90
2022-08-17T22:02:34.786Z,1.13
2022-08-17T22:08:16.600Z,1.08
2022-08-17T22:10:48.715Z,1.20
2022-08-17T22:13:21.053Z,0.80
2022-08-17T22:16:05.928Z,0.90
2022-08-17T22:18:53.675Z,1.10
2022-08-17T22:21:22.448Z,1.00
2022-08-17T22:24:04.817Z,0.90
2022-08-17T22:27:10.832Z,1.00
2022-08-17T22:30:08.726Z,1.23
2022-08-17T22:32:45.621Z,1.40
2022-08-17T22:35:40.132Z,0.93
2022-08-17T22:38:20.573Z,1.30
2022-08-17T22:40:52.001Z,1.48
2022-08-17T22:43:26.329Z,1.30
2022-08-17T22:45:59.445Z,0.82
2022-08-17T22:48:48.876Z,1.48
2022-08-17T22:51:23.673Z,1.13
2022-08-17T22:54:13.623Z,0.90
2022-08-17T22:57:22.125Z,0.82
2022-08-17T23:02:54.192Z,0.95
2022-08-17T23:05:24.378Z,0.60
2022-08-17T23:07:53.280Z,0.65
2022-08-17T23:10:41.854Z,0.88
2022-08-17T23:13:12.207Z,1.20
2022-08-17T23:15:41.717Z,0.82
2022-08-17T23:18:10.053Z,0.85
2022-08-17T23:20:40.243Z,1.17
2022-08-17T23:23:09.427Z,1.30
2022-08-17T23:25:38.033Z,0.90
2022-08-17T23:28:07.521Z,1.10
2022-08-17T23:30:54.472Z,0.80
2022-08-17T23:33:30.710Z,1.20
2022-08-17T23:35:59.157Z,1.20
2022-08-17T23:38:28.657Z,0.65
2022-08-17T23:41:00.601Z,1.63
2022-08-17T23:43:30.722Z,1.15
2022-08-17T23:46:18.793Z,1.10
2022-08-17T23:48:47.867Z,1.02
2022-08-17T23:51:19.578Z,1.00
2022-08-17T23:53:51.674Z,2.45
2022-08-17T23:56:48.192Z,1.02
2022-08-17T23:59:19.820Z,1.38
